createdAt,value
2023-04-18T00:02:10.671Z,6.9
2023-04-18T00:05:12.547Z,6.2
2023-04-18T00:08:14.474Z,7.3
2023-04-18T00:11:16.445Z,6.6
2023-04-18T00:14:18.422Z,6.7
2023-04-18T00:17:20.389Z,6.9
2023-04-18T00:20:22.327Z,6.6
2023-04-18T00:23:24.284Z,6.5
2023-04-18T00:26:26.302Z,6.3
2023-04-18T00:29:28.242Z,6
2023-04-18T00:32:30.244Z,7.4
2023-04-18T00:35:32.192Z,7.1
2023-04-18T00:38:34.143Z,7.3
2023-04-18T00:41:36.081Z,6.5
2023-04-18T00:44:38.032Z,6.2
2023-04-18T00:47:40.154Z,8
2023-04-18T00:50:44.787Z,7.8
2023-04-18T00:53:46.772Z,7
2023-04-18T00:56:48.731Z,8.2
2023-04-18T00:59:50.696Z,7.4
2023-04-18T01:02:52.741Z,7.1
2023-04-18T01:05:54.615Z,6.8
2023-04-18T01:08:56.606Z,7.4
2023-04-18T01:11:58.553Z,8.4
2023-04-18T01:15:00.525Z,8
2023-04-18T01:18:02.509Z,8.3
2023-04-18T01:21:04.437Z,7.7
2023-04-18T01:24:06.424Z,7
2023-04-18T01:27:08.369Z,7.9
2023-04-18T01:30:10.325Z,7.8
2023-04-18T01:33:12.274Z,7.1
2023-04-18T01:36:14.254Z,8.7
2023-04-18T01:39:16.199Z,8.3
2023-04-18T01:42:18.160Z,8.7
2023-04-18T01:45:20.177Z,8.9
2023-04-18T01:48:22.117Z,7.2
2023-04-18T01:51:24.088Z,8.7
2023-04-18T01:54:26.107Z,8.3
2023-04-18T01:57:28.054Z,9.3
2023-04-18T02:00:30.041Z,8
2023-04-18T02:03:32.099Z,8.3
2023-04-18T02:06:33.925Z,8.3
2023-04-18T02:09:35.864Z,8.9
2023-04-18T02:12:37.843Z,8.4
2023-04-18T02:15:39.773Z,8.7
2023-04-18T02:18:41.753Z,9.3
2023-04-18T02:21:43.724Z,9.9
2023-04-18T02:24:45.672Z,7.8
2023-04-18T02:27:47.634Z,10.5
2023-04-18T02:30:49.613Z,9.8
2023-04-18T02:33:51.576Z,8.5
2023-04-18T02:36:53.517Z,9.6
2023-04-18T02:39:55.479Z,10.1
2023-04-18T02:42:57.443Z,9.4
2023-04-18T02:45:59.472Z,9.4
2023-04-18T02:49:01.381Z,9.1
2023-04-18T02:52:03.309Z,10.3
2023-04-18T02:55:05.517Z,10.4
2023-04-18T02:58:07.223Z,10.6
2023-04-18T03:01:09.248Z,11.3
2023-04-18T03:04:11.226Z,10.4
2023-04-18T03:07:13.127Z,10.8
2023-04-18T03:10:15.094Z,11.2
2023-04-18T03:13:17.051Z,10.4
2023-04-18T03:16:19.043Z,11.9
2023-04-18T03:19:20.962Z,11
2023-04-18T03:22:22.937Z,11.8
2023-04-18T03:25:24.899Z,9.3
2023-04-18T03:28:26.856Z,10.6
2023-04-18T03:31:28.844Z,10.6
2023-04-18T03:34:30.784Z,11.9
2023-04-18T03:37:32.726Z,11.2
2023-04-18T03:40:34.708Z,11.3
2023-04-18T03:43:36.687Z,11.7
2023-04-18T03:46:38.687Z,10.6
2023-04-18T03:49:40.623Z,11.4
2023-04-18T03:52:42.558Z,12.1
2023-04-18T03:55:44.522Z,10.9
2023-04-18T03:58:46.480Z,12.8
2023-04-18T04:01:48.439Z,11.9
2023-04-18T04:04:50.417Z,12.7
2023-04-18T04:07:52.350Z,12.2
2023-04-18T04:10:54.326Z,12.8
2023-04-18T04:13:56.304Z,11.8
2023-04-18T04:16:58.234Z,13.3
2023-04-18T04:20:00.219Z,13.7
2023-04-18T04:23:02.222Z,13.2
2023-04-18T04:26:04.172Z,11.6
2023-04-18T04:29:06.140Z,12.4
2023-04-18T04:32:08.249Z,12.7
2023-04-18T04:35:10.159Z,12.7
2023-04-18T04:38:12.114Z,12.6
2023-04-18T04:41:14.075Z,13.8
2023-04-18T04:44:16.251Z,13.1
2023-04-18T04:47:17.979Z,13.4
2023-04-18T04:50:19.957Z,12.9
2023-04-18T04:53:21.918Z,12.5
2023-04-18T04:56:23.932Z,12.1
2023-04-18T04:59:25.899Z,12.8
2023-04-18T05:02:27.988Z,11.5
2023-04-18T05:05:29.849Z,12.8
2023-04-18T05:08:31.819Z,11.5
2023-04-18T05:11:33.783Z,11.5
2023-04-18T05:14:35.723Z,10.4
2023-04-18T05:17:37.773Z,11.6
2023-04-18T05:20:39.647Z,12.3
2023-04-18T05:23:41.629Z,11.4
2023-04-18T05:26:43.593Z,11.8
2023-04-18T05:29:45.531Z,12.1
2023-04-18T05:32:47.562Z,11.4
2023-04-18T05:35:49.461Z,10.8
2023-04-18T05:38:51.400Z,11.2
2023-04-18T05:41:53.378Z,10.9
2023-04-18T05:44:55.292Z,11.2
2023-04-18T05:47:57.342Z,10.1
2023-04-18T05:50:59.248Z,10.1
2023-04-18T05:54:01.208Z,10.4
2023-04-18T05:57:04.469Z,10.6
2023-04-18T06:00:05.127Z,10.8
2023-04-18T06:03:08.611Z,10.3
2023-04-18T06:06:09.044Z,10.4
2023-04-18T06:09:11.079Z,10
2023-04-18T06:12:13.040Z,10.3
2023-04-18T06:15:14.970Z,9.3
2023-04-18T06:18:16.953Z,9.7
2023-04-18T06:21:18.910Z,8.8
2023-04-18T06:24:20.881Z,9.3
2023-04-18T06:27:30.425Z,9.9
2023-04-18T06:30:24.805Z,10.3
2023-04-18T06:33:26.798Z,8.9
2023-04-18T06:36:28.751Z,9.3
2023-04-18T06:39:30.714Z,9.7
2023-04-18T06:42:32.677Z,10.1
2023-04-18T06:45:34.642Z,9.2
2023-04-18T06:48:36.576Z,9.6
2023-04-18T06:51:38.578Z,9
2023-04-18T06:54:40.553Z,8.8
2023-04-18T06:57:42.530Z,9.3
2023-04-18T07:00:44.541Z,9.7
2023-04-18T07:03:46.514Z,9.6
2023-04-18T07:06:48.426Z,9.7
2023-04-18T07:09:50.364Z,8.7
2023-04-18T07:12:52.350Z,8
2023-04-18T07:15:54.298Z,8.7
2023-04-18T07:18:56.259Z,8.3
2023-04-18T07:21:58.244Z,8.5
2023-04-18T07:25:00.206Z,8.1
2023-04-18T07:28:02.280Z,8.5
2023-04-18T07:31:04.160Z,7.7
2023-04-18T07:34:06.096Z,7.3
2023-04-18T07:37:08.059Z,7.8
2023-04-18T07:40:10.004Z,6.8
2023-04-18T07:43:11.960Z,7.3
2023-04-18T07:46:13.975Z,7.3
2023-04-18T07:49:16.116Z,7.5
2023-04-18T07:52:17.865Z,6.7
2023-04-18T07:55:19.837Z,7
2023-04-18T07:58:21.790Z,6
2023-04-18T08:01:23.748Z,5.6
2023-04-18T08:07:27.724Z,6.2
2023-04-18T08:10:29.670Z,6
2023-04-18T08:13:31.645Z,6.6
2023-04-18T08:16:33.646Z,5.8
2023-04-18T08:19:35.565Z,5.2
2023-04-18T08:22:44.161Z,6.5
2023-04-18T08:25:39.549Z,5.9
2023-04-18T08:28:41.509Z,6.7
2023-04-18T08:31:43.549Z,7.1
2023-04-18T08:34:45.476Z,5.8
2023-04-18T08:37:47.456Z,5.9
2023-04-18T08:40:49.431Z,5
2023-04-18T08:43:51.406Z,6.3
2023-04-18T08:46:53.440Z,6.4
2023-04-18T08:49:55.402Z,6.5
2023-04-18T08:52:57.347Z,6.6
2023-04-18T08:55:59.308Z,6.3
2023-04-18T08:59:01.269Z,5.8
2023-04-18T09:02:03.285Z,5.9
2023-04-18T09:05:05.194Z,6.2
2023-04-18T09:08:07.149Z,6.1
2023-04-18T09:11:09.107Z,5.5
2023-04-18T09:14:11.108Z,5.4
2023-04-18T09:17:13.061Z,5.4
2023-04-18T09:20:15.017Z,5.6
2023-04-18T09:23:16.999Z,5.7
2023-04-18T09:26:19.065Z,5.5
2023-04-18T09:29:21.106Z,5.1
2023-04-18T09:32:23.095Z,4.7
2023-04-18T09:35:25.039Z,5.3
2023-04-18T09:38:27.041Z,5.3
2023-04-18T09:41:29.008Z,5.5
2023-04-18T09:44:31.072Z,5.4
2023-04-18T09:47:33.093Z,5.9
2023-04-18T09:50:35.099Z,5.1
2023-04-18T09:53:37.008Z,4.9
2023-04-18T09:56:39.020Z,6.3
2023-04-18T09:59:41.000Z,6.2
2023-04-18T10:02:43.026Z,5.1
2023-04-18T10:05:44.971Z,5.5
2023-04-18T10:08:46.910Z,5.3
2023-04-18T10:11:48.875Z,5.3
2023-04-18T10:14:50.880Z,5
2023-04-18T10:18:03.232Z,5.1
2023-04-18T10:20:54.806Z,5
2023-04-18T10:23:56.778Z,4.4
2023-04-18T10:26:58.828Z,4.5
2023-04-18T10:30:00.903Z,5.5
2023-04-18T10:33:05.833Z,4.7
2023-04-18T10:36:04.848Z,4.6
2023-04-18T10:39:06.793Z,3.9
2023-04-18T10:42:08.782Z,4.4
2023-04-18T10:45:10.745Z,5
2023-04-18T10:48:12.716Z,5
2023-04-18T10:51:14.690Z,4.8
2023-04-18T10:54:16.707Z,4.6
2023-04-18T10:57:18.652Z,4.6
2023-04-18T11:00:20.664Z,5.2
2023-04-18T11:03:22.614Z,5
2023-04-18T11:06:24.548Z,5.3
2023-04-18T11:09:26.495Z,5.1
2023-04-18T11:12:28.489Z,5.1
2023-04-18T11:15:31.132Z,5
2023-04-18T11:18:32.386Z,4.6
2023-04-18T11:21:34.369Z,4.6
2023-04-18T11:24:36.318Z,4
2023-04-18T11:27:38.297Z,4.1
2023-04-18T11:30:40.276Z,4.2
2023-04-18T11:33:42.209Z,4.2
2023-04-18T11:36:44.190Z,4.2
2023-04-18T11:39:46.120Z,4.1
2023-04-18T11:42:48.081Z,4
2023-04-18T11:45:50.086Z,4
2023-04-18T11:48:52.026Z,3.2
2023-04-18T11:51:53.971Z,3.6
2023-04-18T11:54:55.927Z,4
2023-04-18T11:57:58.158Z,3.7
2023-04-18T12:00:59.908Z,4.2
2023-04-18T12:04:02.276Z,3.6
2023-04-18T12:07:03.786Z,3.7
2023-04-18T12:10:05.752Z,3.4
2023-04-18T12:13:07.709Z,3.3
2023-04-18T12:16:09.714Z,4.2
2023-04-18T12:19:11.719Z,3.5
2023-04-18T12:22:13.682Z,3.9
2023-04-18T12:25:15.657Z,3.4
2023-04-18T12:28:17.656Z,3.9
2023-04-18T12:31:19.622Z,3.8
2023-04-18T12:34:21.571Z,4
2023-04-18T12:37:23.578Z,3.6
2023-04-18T12:40:25.582Z,3.8
2023-04-18T12:43:27.569Z,3.4
2023-04-18T12:46:29.561Z,3.7
2023-04-18T12:49:31.494Z,4.4
2023-04-18T12:52:33.469Z,3.7
2023-04-18T12:55:35.423Z,3.7
2023-04-18T12:58:37.458Z,3.6
2023-04-18T13:01:39.383Z,3.5
2023-04-18T13:04:41.448Z,3.2
2023-04-18T13:07:43.314Z,3.4
2023-04-18T13:10:45.267Z,3
2023-04-18T13:13:47.302Z,3.5
2023-04-18T13:16:49.254Z,3.5
2023-04-18T13:19:51.214Z,3.3
2023-04-18T13:22:53.179Z,3.1
2023-04-18T13:25:55.207Z,3.4
2023-04-18T13:28:57.200Z,3.2
2023-04-18T13:31:59.130Z,3.4
2023-04-18T13:35:01.100Z,3.2
2023-04-18T13:38:03.069Z,3.1
2023-04-18T13:41:12.544Z,3.3
2023-04-18T13:44:07.002Z,3.2
2023-04-18T13:47:09.013Z,3.5
2023-04-18T13:50:11.265Z,4
2023-04-18T13:53:13.016Z,3.4
2023-04-18T13:56:15.022Z,4
2023-04-18T13:59:17.225Z,3.7
2023-04-18T14:02:18.980Z,3.4
2023-04-18T14:05:21.000Z,3.3
2023-04-18T14:08:22.926Z,4.1
2023-04-18T14:11:24.914Z,3.8
2023-04-18T14:14:26.875Z,4.1
2023-04-18T14:17:28.894Z,3.9
2023-04-18T14:20:30.835Z,5.4
2023-04-18T14:23:32.821Z,5.9
2023-04-18T14:26:34.841Z,5.4
2023-04-18T14:29:36.815Z,5.7
2023-04-18T14:32:38.793Z,6.4
2023-04-18T14:35:40.756Z,6.9
2023-04-18T14:38:42.699Z,6.4
2023-04-18T14:41:44.685Z,7
2023-04-18T14:44:46.637Z,7.3
2023-04-18T14:47:48.664Z,7.8
2023-04-18T14:50:50.550Z,7.3
2023-04-18T14:53:52.499Z,7.1
2023-04-18T14:56:54.472Z,6.2
2023-04-18T14:59:56.436Z,6.7
2023-04-18T15:02:58.465Z,6.6
2023-04-18T15:06:00.551Z,6.6
2023-04-18T15:09:02.428Z,6.4
2023-04-18T15:12:04.436Z,6.2
2023-04-18T15:15:06.387Z,5.3
2023-04-18T15:18:08.580Z,6
2023-04-18T15:21:10.422Z,6.5
2023-04-18T15:24:12.670Z,7.1
2023-04-18T15:27:14.474Z,6.6
2023-04-18T15:30:16.430Z,7.1
2023-04-18T15:33:18.371Z,7.5
2023-04-18T15:36:20.353Z,7.4
2023-04-18T15:39:22.346Z,7.4
2023-04-18T15:42:24.301Z,7.4
2023-04-18T15:45:26.287Z,7.2
2023-04-18T15:48:28.325Z,7.4
2023-04-18T15:51:30.266Z,7.9
2023-04-18T15:54:32.225Z,7.8
2023-04-18T15:57:34.185Z,7.7
2023-04-18T16:00:36.174Z,7.9
2023-04-18T16:03:38.390Z,7.1
2023-04-18T16:06:40.245Z,7.1
2023-04-18T16:09:42.229Z,7.9
2023-04-18T16:12:44.188Z,7.5
2023-04-18T16:15:46.192Z,7.5
2023-04-18T16:18:48.160Z,7
2023-04-18T16:21:50.091Z,6.8
2023-04-18T16:24:52.186Z,6.8
2023-04-18T16:27:54.151Z,6.6
2023-04-18T16:30:56.178Z,6
2023-04-18T16:33:58.218Z,6.6
2023-04-18T16:37:00.325Z,7
2023-04-18T16:40:02.401Z,6.3
2023-04-18T16:43:04.367Z,6.6
2023-04-18T16:46:06.380Z,6.2
2023-04-18T16:49:08.276Z,5.6
2023-04-18T16:52:10.265Z,6.5
2023-04-18T16:55:12.227Z,6.4
2023-04-18T16:58:14.186Z,6.2
2023-04-18T17:01:16.190Z,5.8
2023-04-18T17:04:18.266Z,5.9
2023-04-18T17:07:20.095Z,6.1
2023-04-18T17:10:22.035Z,5.6
2023-04-18T17:13:24.017Z,5.9
2023-04-18T17:16:26.017Z,6.2
2023-04-18T17:19:27.941Z,5.7
2023-04-18T17:22:29.899Z,5.4
2023-04-18T17:25:31.879Z,6
2023-04-18T17:28:33.934Z,5.5
2023-04-18T17:31:35.810Z,5.9
2023-04-18T17:34:37.786Z,6.7
2023-04-18T17:37:39.737Z,6
2023-04-18T17:40:41.733Z,5.8
2023-04-18T17:43:43.662Z,5.4
2023-04-18T17:46:45.612Z,5.3
2023-04-18T17:49:47.568Z,5.5
2023-04-18T17:52:49.703Z,5.6
2023-04-18T17:55:51.500Z,6
2023-04-18T17:58:54.717Z,6.2
2023-04-18T18:01:55.478Z,5.9
2023-04-18T18:04:57.400Z,6.3
2023-04-18T18:07:59.351Z,6.7
2023-04-18T18:11:01.383Z,6.1
2023-04-18T18:14:03.297Z,7
2023-04-18T18:17:05.280Z,6
2023-04-18T18:20:07.213Z,6.3
2023-04-18T18:23:09.166Z,6.3
2023-04-18T18:26:11.152Z,7.1
2023-04-18T18:29:13.360Z,7
2023-04-18T18:32:15.070Z,6.8
2023-04-18T18:35:17.057Z,7.3
2023-04-18T18:38:18.972Z,6.5
2023-04-18T18:41:20.940Z,6.2
2023-04-18T18:44:22.957Z,6.7
2023-04-18T18:47:24.901Z,6.6
2023-04-18T18:50:26.825Z,6.7
2023-04-18T18:53:28.808Z,7
2023-04-18T18:56:30.786Z,6.6
2023-04-18T18:59:32.736Z,6.9
2023-04-18T19:02:34.809Z,7.1
2023-04-18T19:05:36.668Z,6.5
2023-04-18T19:08:38.636Z,6.8
2023-04-18T19:11:40.593Z,7
2023-04-18T19:14:42.578Z,6.6
2023-04-18T19:17:44.837Z,7.5
2023-04-18T19:20:46.735Z,7
2023-04-18T19:23:48.683Z,7.1
2023-04-18T19:26:50.639Z,7.3
2023-04-18T19:29:52.640Z,7.7
2023-04-18T19:32:54.637Z,6.9
2023-04-18T19:35:56.554Z,6.5
2023-04-18T19:38:58.534Z,6.5
2023-04-18T19:42:00.446Z,7.1
2023-04-18T19:45:02.455Z,6.9
2023-04-18T19:48:04.388Z,6.1
2023-04-18T19:51:06.359Z,6.6
2023-04-18T19:54:08.299Z,7
2023-04-18T19:57:10.261Z,6.8
2023-04-18T20:00:12.256Z,7.3
2023-04-18T20:03:14.290Z,6.9
2023-04-18T20:06:16.156Z,6.8
2023-04-18T20:09:18.105Z,6.4
2023-04-18T20:12:20.087Z,6.2
2023-04-18T20:15:22.073Z,7.2
2023-04-18T20:18:24.103Z,6.7
2023-04-18T20:21:26.051Z,6.7
2023-04-18T20:24:28.131Z,6.6
2023-04-18T20:27:30.274Z,6.5
2023-04-18T20:30:31.991Z,6.5
2023-04-18T20:33:33.948Z,6.1
2023-04-18T20:36:35.923Z,6.4
2023-04-18T20:39:37.900Z,6.9
2023-04-18T20:42:39.880Z,5.8
2023-04-18T20:45:41.889Z,6.9
2023-04-18T20:48:43.821Z,6
2023-04-18T20:51:45.867Z,6.6
2023-04-18T20:54:47.754Z,6.2
2023-04-18T20:57:49.696Z,6.2
2023-04-18T21:00:51.680Z,5.6
2023-04-18T21:03:53.741Z,5.1
2023-04-18T21:06:55.633Z,6.2
2023-04-18T21:09:57.618Z,5.6
2023-04-18T21:13:00.720Z,5.9
2023-04-18T21:16:01.571Z,6.5
2023-04-18T21:19:03.515Z,6.4
2023-04-18T21:22:05.468Z,5.8
2023-04-18T21:25:07.411Z,5.1
2023-04-18T21:28:09.372Z,5.4
2023-04-18T21:31:11.338Z,5.9
2023-04-18T21:34:13.415Z,5.6
2023-04-18T21:37:15.286Z,5.6
2023-04-18T21:40:17.208Z,5.7
2023-04-18T21:43:19.157Z,5.5
2023-04-18T21:46:21.253Z,5.7
2023-04-18T21:49:23.104Z,6
2023-04-18T21:52:25.080Z,5.1
2023-04-18T21:55:27.036Z,5.1
2023-04-18T21:58:29.033Z,5.3
2023-04-18T22:01:31.013Z,5.1
2023-04-18T22:04:32.994Z,5.2
2023-04-18T22:07:40.760Z,5.3
2023-04-18T22:10:36.898Z,5.2
2023-04-18T22:13:38.856Z,5
2023-04-18T22:16:40.838Z,5.2
2023-04-18T22:19:42.883Z,4.7
2023-04-18T22:22:44.800Z,5.2
2023-04-18T22:25:46.744Z,4.8
2023-04-18T22:28:48.756Z,4.3
2023-04-18T22:31:50.696Z,5
2023-04-18T22:34:52.706Z,4.7
2023-04-18T22:37:54.650Z,4.3
2023-04-18T22:40:56.601Z,4.8
2023-04-18T22:43:58.559Z,5
2023-04-18T22:47:00.538Z,4.8
2023-04-18T22:50:02.479Z,4
2023-04-18T22:53:04.494Z,4.1
2023-04-18T22:56:06.439Z,4.3
2023-04-18T22:59:08.431Z,3.8
2023-04-18T23:02:10.473Z,4
2023-04-18T23:05:12.345Z,3.4
2023-04-18T23:08:14.290Z,3.7
2023-04-18T23:11:16.258Z,4.6
2023-04-18T23:14:18.250Z,4
2023-04-18T23:17:20.169Z,3.5
2023-04-18T23:20:22.159Z,3.8
2023-04-18T23:23:24.108Z,3.9
2023-04-18T23:26:26.057Z,4.1
2023-04-18T23:29:28.020Z,3.7
2023-04-18T23:32:29.992Z,4.4
2023-04-18T23:35:31.949Z,4.2
2023-04-18T23:38:33.899Z,4.4
2023-04-18T23:41:35.863Z,4.4
2023-04-18T23:44:37.853Z,4.4
2023-04-18T23:47:39.878Z,4.1
2023-04-18T23:50:41.810Z,4.2
2023-04-18T23:53:43.738Z,4.3
2023-04-18T23:56:41.298Z,20.4
2023-04-18T23:56:45.674Z,4.4
2023-04-18T23:59:47.692Z,4.5
